Time;durP1;ratioP1;P1;durP2;ratioP2;P2;SDS_P1;SDS_P2;PMS_P1;PMS_P2;Temp;Humidity;BMP_temperature;BMP_pressure;BME280_temperature;BME280_humidity;BME280_pressure;Samples;Min_cycle;Max_cycle;Signal;HPM_P1;HPM_P2
2021/04/22 00:00:22;;;;;;;12.70;2.83;;;3.60;99.90;;;4.41;67.89;101229.34;4812247;29;20049;-86
2021/04/22 00:02:48;;;;;;;22.45;4.28;;;3.40;99.90;;;4.34;68.48;101226.97;4812166;29;20365;-86
2021/04/22 00:05:37;;;;;;;19.75;3.65;;;3.40;99.90;;;4.23;68.72;101222.75;4811422;29;20070;-89
2021/04/22 00:08:13;;;;;;;18.63;3.55;;;3.30;99.90;;;4.25;68.82;101226.03;4796789;29;20041;-85
2021/04/22 00:10:52;;;;;;;22.95;4.05;;;3.30;99.90;;;4.41;68.10;101230.19;4796174;29;20088;-88
2021/04/22 00:13:27;;;;;;;16.95;3.05;;;3.20;99.90;;;4.39;68.57;101228.84;4811694;29;20034;-90
2021/04/22 00:15:55;;;;;;;17.43;3.77;;;3.20;99.90;;;4.35;68.44;101233.34;4813747;29;20085;-89
2021/04/22 00:18:22;;;;;;;15.85;2.90;;;3.10;99.90;;;4.28;68.56;101233.72;4797788;29;20288;-88
2021/04/22 00:20:49;;;;;;;21.23;3.97;;;3.10;99.90;;;4.08;69.45;101234.03;4798083;29;20034;-88
2021/04/22 00:23:18;;;;;;;15.68;3.80;;;3.10;99.90;;;3.96;69.78;101239.22;4798577;29;20102;-87
2021/04/22 00:25:45;;;;;;;13.65;2.75;;;3.00;99.90;;;3.88;69.98;101237.97;4799476;29;20043;-89
2021/04/22 00:28:14;;;;;;;19.92;3.85;;;2.90;99.90;;;3.84;70.39;101241.63;4817804;29;20047;-87
2021/04/22 00:30:43;;;;;;;13.50;3.35;;;2.90;99.90;;;3.82;70.65;101247.44;4801755;29;20079;-88
2021/04/22 00:33:19;;;;;;;18.38;4.30;;;2.90;99.90;;;3.80;70.78;101240.56;4802630;29;20077;-89
2021/04/22 00:35:46;;;;;;;;;;;2.80;99.90;;;3.77;70.97;101242.00;4796451;29;20460;-88
2021/04/22 00:38:12;;;;;;;17.98;3.70;;;2.80;99.90;;;3.68;70.77;101241.03;4795936;29;19985;-85
2021/04/22 00:40:42;;;;;;;17.77;2.97;;;2.70;99.90;;;3.63;71.50;101244.66;4812637;29;20035;-89
2021/04/22 00:43:15;;;;;;;13.50;3.10;;;2.70;99.90;;;3.54;71.86;101240.09;4795932;29;20039;-87
2021/04/22 00:45:43;;;;;;;16.50;3.20;;;2.60;99.90;;;3.54;71.89;101251.97;4795779;29;20043;-87
2021/04/22 00:48:19;;;;;;;12.88;3.90;;;2.60;99.90;;;3.48;72.11;101250.41;4811672;29;20500;-87
2021/04/22 00:50:45;;;;;;;;;;;2.50;99.90;;;3.43;72.30;101247.72;4797235;29;20060;-86
2021/04/22 00:53:13;;;;;;;11.35;3.35;;;2.50;99.90;;;3.36;72.54;101255.53;4801893;29;20015;-86
2021/04/22 00:55:40;;;;;;;12.68;3.53;;;2.50;99.90;;;3.33;73.02;101250.63;4811323;29;20107;-88
2021/04/22 00:58:08;;;;;;;12.68;2.80;;;2.40;99.90;;;3.26;73.28;101244.63;4827991;29;20030;-87
2021/04/22 01:01:07;;;;;;;19.17;3.65;;;2.40;99.90;;;3.26;73.50;101255.66;4811520;29;20043;-87
2021/04/22 01:03:33;;;;;;;20.73;3.25;;;2.30;99.90;;;3.22;73.75;101254.59;4811840;29;20067;-87
2021/04/22 01:06:03;;;;;;;20.60;4.43;;;2.30;99.90;;;3.17;73.73;101254.69;4812316;29;20056;-87
2021/04/22 01:08:30;;;;;;;18.52;3.30;;;2.20;99.90;;;3.18;74.16;101250.78;4826495;29;20064;-86
2021/04/22 01:10:56;;;;;;;19.40;4.00;;;2.30;99.90;;;3.14;74.24;101242.28;4799451;29;20055;-87
2021/04/22 01:13:23;;;;;;;14.00;3.50;;;2.30;99.90;;;3.16;74.09;101247.50;4812295;29;20483;-89
2021/04/22 01:15:50;;;;;;;11.52;3.38;;;2.20;99.90;;;3.11;74.45;101248.38;4796946;29;20034;-87
2021/04/22 01:18:16;;;;;;;18.33;3.60;;;2.20;99.90;;;3.10;74.64;101254.19;4830365;29;20068;-88
2021/04/22 01:20:50;;;;;;;11.73;3.22;;;2.20;99.90;;;3.18;74.80;101254.38;4820825;29;20038;-88
2021/04/22 01:23:16;;;;;;;21.60;3.95;;;2.10;99.90;;;3.27;74.54;101262.84;4819647;29;20039;-88
2021/04/22 01:25:50;;;;;;;12.38;2.90;;;2.20;99.90;;;3.33;74.46;101267.19;4821212;29;20038;-89
2021/04/22 01:28:21;;;;;;;17.80;3.83;;;2.20;99.90;;;3.34;74.37;101266.03;4813986;29;20064;-87
2021/04/22 01:30:55;;;;;;;14.68;3.35;;;2.20;99.90;;;3.43;74.53;101263.47;4812868;29;20088;-86
2021/04/22 01:33:27;;;;;;;19.27;3.88;;;2.20;99.90;;;3.49;74.27;101273.31;4818247;29;20023;-86
2021/04/22 01:35:58;;;;;;;15.50;3.33;;;2.30;99.90;;;3.45;74.17;101267.56;4826580;29;20031;-87
2021/04/22 01:38:28;;;;;;;18.00;4.72;;;2.30;99.90;;;3.44;74.44;101276.13;4815995;29;20122;-87
2021/04/22 01:40:57;;;;;;;14.57;4.15;;;2.30;99.90;;;3.43;74.68;101275.34;4811829;29;20054;-87
2021/04/22 01:43:23;;;;;;;11.63;2.45;;;2.30;99.90;;;3.42;74.73;101279.22;4812083;29;20461;-87
2021/04/22 01:45:48;;;;;;;14.65;2.90;;;2.30;99.90;;;3.44;74.80;101276.97;4810566;29;20134;-88
2021/04/22 01:48:15;;;;;;;15.40;5.20;;;2.30;99.90;;;3.45;75.02;101270.31;4810857;29;20108;-88
2021/04/22 01:50:45;;;;;;;13.23;3.45;;;2.30;99.90;;;3.45;74.86;101269.50;4810849;29;20472;-87
2021/04/22 01:53:13;;;;;;;10.27;3.00;;;2.30;99.90;;;3.48;75.05;101279.97;4815795;29;20050;-87
2021/04/22 01:55:48;;;;;;;15.35;3.60;;;2.30;99.90;;;3.44;75.01;101278.91;4815580;29;20034;-88
2021/04/22 01:58:20;;;;;;;19.40;3.77;;;2.30;99.90;;;3.39;75.23;101277.03;4810615;29;20094;-87
2021/04/22 02:00:54;;;;;;;9.32;3.25;;;2.30;99.90;;;3.28;74.63;101277.44;4807445;29;20133;-87
2021/04/22 02:03:21;;;;;;;11.90;3.17;;;2.10;99.90;;;3.16;75.17;101277.88;4808240;29;20042;-89
2021/04/22 02:05:49;;;;;;;18.20;3.80;;;2.00;99.90;;;3.14;75.60;101282.88;4808275;29;20084;-87
2021/04/22 02:08:16;;;;;;;16.02;3.72;;;2.00;99.90;;;3.16;75.62;101300.78;4808132;29;20030;-87
2021/04/22 02:10:49;;;;;;;21.88;4.20;;;2.00;99.90;;;3.22;75.72;101293.25;4809989;29;20041;-88
2021/04/22 02:13:18;;;;;;;15.40;4.10;;;2.00;99.90;;;3.26;75.80;101294.31;4797550;29;20058;-89
2021/04/22 02:15:48;;;;;;;16.90;3.63;;;2.10;99.90;;;3.35;76.42;101295.31;4810407;29;20444;-88
2021/04/22 02:18:15;;;;;;;12.85;3.70;;;2.20;99.90;;;3.50;75.65;101300.63;4810624;29;20345;-87
2021/04/22 02:20:42;;;;;;;20.30;4.28;;;2.30;99.90;;;3.57;75.63;101301.09;4795038;29;20039;-88
2021/04/22 02:23:18;;;;;;;22.10;3.70;;;2.30;99.90;;;3.62;75.47;101292.78;4794417;29;20134;-86
2021/04/22 02:25:48;;;;;;;14.35;3.10;;;2.40;99.90;;;3.64;76.00;101296.03;4808665;29;20067;-87
2021/04/22 02:28:16;;;;;;;16.52;3.50;;;2.40;99.90;;;3.69;75.43;101297.94;4793210;29;20034;-88
2021/04/22 02:30:45;;;;;;;18.13;3.72;;;2.50;99.90;;;3.69;75.67;101295.97;4796512;29;20038;-88
2021/04/22 02:33:16;;;;;;;10.40;3.05;;;2.50;99.90;;;3.71;75.34;101303.97;4792200;29;20646;-87
2021/04/22 02:35:49;;;;;;;16.45;3.35;;;2.50;99.90;;;3.63;75.63;101297.16;4776549;30;20424;-88
2021/04/22 02:38:17;;;;;;;15.65;4.80;;;2.40;99.90;;;3.61;75.76;101304.94;4776417;30;20110;-87
2021/04/22 02:40:46;;;;;;;13.23;3.20;;;2.40;99.90;;;3.62;75.96;101305.75;4776164;30;20070;-88
2021/04/22 02:43:17;;;;;;;17.80;3.33;;;2.40;99.90;;;3.64;76.10;101297.97;4776117;30;20077;-87
2021/04/22 02:45:50;;;;;;;13.55;3.35;;;2.40;99.90;;;3.67;76.47;101305.66;4776023;30;20031;-87
2021/04/22 02:48:16;;;;;;;17.80;3.70;;;2.50;99.90;;;3.73;76.27;101304.47;4775943;30;20031;-88
2021/04/22 02:50:49;;;;;;;14.50;3.80;;;2.50;99.90;;;3.73;76.15;101305.31;4777030;30;20479;-88
2021/04/22 02:53:16;;;;;;;17.23;4.03;;;2.50;99.90;;;3.71;76.65;101303.97;4793056;30;20039;-89
2021/04/22 02:55:45;;;;;;;11.05;3.88;;;2.50;99.90;;;3.77;76.86;101308.31;4792056;29;20103;-89
2021/04/22 02:58:13;;;;;;;9.00;3.45;;;2.60;99.90;;;3.83;76.49;101311.81;4777208;30;20520;-86
2021/04/22 03:00:42;;;;;;;12.63;3.95;;;2.70;99.90;;;3.88;76.34;101303.47;4778763;30;20476;-87
2021/04/22 03:03:10;;;;;;;17.15;4.30;;;2.70;99.90;;;3.99;76.00;101313.25;4781294;30;20035;-87
2021/04/22 03:05:37;;;;;;;17.13;3.63;;;2.80;99.90;;;4.07;75.77;101309.81;4786518;30;20028;-88
2021/04/22 03:08:05;;;;;;;18.08;4.32;;;2.80;99.90;;;4.13;75.39;101314.16;4789328;29;20034;-89
2021/04/22 03:10:34;;;;;;;17.00;4.03;;;2.80;99.90;;;4.14;75.63;101308.31;4803700;29;20037;-88
2021/04/22 03:13:02;;;;;;;17.23;4.25;;;3.00;99.90;;;4.18;75.56;101317.66;4800939;29;20043;-88
2021/04/22 03:15:29;;;;;;;16.17;5.55;;;2.90;99.90;;;4.22;75.19;101313.19;4801023;29;20038;-88
2021/04/22 03:17:54;;;;;;;17.95;3.75;;;3.00;99.90;;;4.31;75.57;101321.63;4801417;29;20031;-86
2021/04/22 03:20:23;;;;;;;13.88;3.67;;;3.00;99.90;;;4.28;76.02;101319.44;4799817;29;20104;-89
2021/04/22 03:22:50;;;;;;;11.15;3.70;;;3.00;99.90;;;4.25;75.94;101325.56;4802672;29;20039;-87
2021/04/22 03:25:22;;;;;;;15.10;4.35;;;3.00;99.90;;;4.17;76.36;101312.44;4817966;29;20034;-89
2021/04/22 03:27:48;;;;;;;12.40;3.22;;;3.00;99.90;;;4.17;76.25;101313.25;4801789;29;20047;-90
2021/04/22 03:30:17;;;;;;;15.10;3.25;;;2.90;99.90;;;4.19;76.42;101326.78;4802247;29;20037;-90
2021/04/22 03:32:49;;;;;;;17.00;4.15;;;2.90;99.90;;;4.12;76.18;101324.38;4819501;29;20045;-88
2021/04/22 03:35:17;;;;;;;17.30;4.68;;;2.90;99.90;;;4.11;75.90;101319.19;4819137;29;20035;-90
2021/04/22 03:37:43;;;;;;;15.27;3.50;;;2.90;99.90;;;4.07;76.21;101323.66;4818352;29;20034;-89
2021/04/22 03:40:13;;;;;;;14.98;4.05;;;2.90;99.90;;;4.01;76.22;101322.91;4816813;29;20031;-89
2021/04/22 03:42:40;;;;;;;17.83;3.58;;;2.80;99.90;;;3.89;76.15;101313.38;4800969;29;20031;-90
2021/04/22 03:45:10;;;;;;;17.88;5.07;;;2.70;99.90;;;3.80;76.70;101323.47;4800625;29;20403;-89
2021/04/22 03:47:37;;;;;;;14.68;4.55;;;2.60;99.90;;;3.72;76.65;101319.44;4800684;29;20026;-88
2021/04/22 03:50:12;;;;;;;23.08;4.88;;;2.50;99.90;;;3.69;76.72;101329.13;4800433;29;20446;-88
2021/04/22 03:52:39;;;;;;;13.02;4.90;;;2.50;99.90;;;3.65;77.13;101328.09;4807315;29;20055;-87
2021/04/22 03:55:09;;;;;;;23.80;7.20;;;2.50;99.90;;;3.65;76.95;101321.72;4807819;29;20058;-88
2021/04/22 03:57:35;;;;;;;29.48;10.07;;;2.40;99.90;;;3.64;77.09;101320.09;4800593;29;20038;-88
2021/04/22 04:00:07;;;;;;;29.80;8.98;;;2.40;99.90;;;3.63;77.15;101319.25;4798896;29;20046;-89
2021/04/22 04:02:33;;;;;;;22.63;7.72;;;2.40;99.90;;;3.62;77.10;101325.09;4799269;29;20050;-90
2021/04/22 04:04:59;;;;;;;22.10;5.90;;;2.40;99.90;;;3.58;77.63;101326.78;4798271;29;20027;-90
2021/04/22 04:07:25;;;;;;;18.08;5.18;;;2.40;99.90;;;3.64;77.58;101325.59;4797742;29;20042;-88
2021/04/22 04:09:51;;;;;;;12.43;4.15;;;2.50;99.90;;;3.61;77.49;101324.25;4797101;29;20083;-88
2021/04/22 04:12:17;;;;;;;12.80;4.18;;;2.40;99.90;;;3.58;77.52;101307.44;4797349;29;20090;-88
2021/04/22 04:14:44;;;;;;;18.98;4.78;;;2.40;99.90;;;3.62;77.50;101322.31;4797715;29;20027;-87
2021/04/22 04:17:10;;;;;;;21.83;5.38;;;2.40;99.90;;;3.65;77.41;101325.31;4812685;29;20170;-89
2021/04/22 04:19:36;;;;;;;22.08;5.30;;;2.50;99.90;;;3.63;76.99;101323.94;4796821;29;20055;-90
2021/04/22 04:22:04;;;;;;;20.83;4.82;;;2.40;99.90;;;3.72;77.15;101330.50;4812610;29;20049;-88
2021/04/22 04:24:30;;;;;;;20.60;4.90;;;2.50;99.90;;;3.72;77.29;101334.06;4795595;29;20099;-87
2021/04/22 04:27:00;;;;;;;17.25;4.18;;;2.50;99.90;;;3.69;77.29;101337.41;4796085;29;20039;-88
2021/04/22 04:29:26;;;;;;;21.77;4.50;;;2.50;99.90;;;3.75;77.10;101349.22;4812331;29;20035;-87
2021/04/22 04:31:58;;;;;;;19.88;5.00;;;2.50;99.90;;;3.81;76.81;101350.81;4794125;29;20049;-87
2021/04/22 04:34:25;;;;;;;14.52;3.97;;;2.50;99.90;;;3.85;76.48;101345.53;4812004;29;20035;-86
2021/04/22 04:36:51;;;;;;;19.80;5.07;;;2.60;99.90;;;3.90;76.80;101360.09;4808376;29;20536;-86
2021/04/22 04:39:17;;;;;;;22.85;5.82;;;2.60;99.90;;;3.94;76.08;101352.03;4795084;29;20062;-84
2021/04/22 04:41:44;;;;;;;25.60;6.68;;;2.70;99.90;;;3.96;76.49;101344.25;4810322;29;20066;-86
2021/04/22 04:44:18;;;;;;;21.38;5.05;;;2.80;99.90;;;4.09;75.74;101355.41;4794803;29;20038;-88
2021/04/22 04:46:45;;;;;;;21.38;4.63;;;2.80;99.90;;;4.12;75.35;101349.28;4794472;29;20042;-87
2021/04/22 04:49:11;;;;;;;15.38;4.80;;;2.90;99.90;;;4.23;75.34;101347.19;4794816;29;20030;-88
2021/04/22 04:51:37;;;;;;;18.73;5.68;;;2.90;99.90;;;4.32;74.60;101352.84;4798530;29;20038;-89
2021/04/22 04:54:04;;;;;;;18.85;5.15;;;3.00;99.90;;;4.38;75.10;101352.47;4797952;29;20065;-88
2021/04/22 04:56:33;;;;;;;20.10;5.07;;;3.10;99.90;;;4.46;75.23;101362.88;4799197;29;20173;-87
2021/04/22 04:59:03;;;;;;;16.27;4.93;;;3.20;99.90;;;4.53;74.26;101357.78;4798211;29;20038;-88
2021/04/22 05:01:29;;;;;;;23.63;5.63;;;3.30;99.90;;;4.60;74.13;101358.22;4795988;29;20054;-89
2021/04/22 05:04:24;;;;;;;18.05;5.43;;;3.40;99.90;;;4.70;73.64;101360.00;4800026;29;20054;-89
2021/04/22 05:06:50;;;;;;;23.98;5.28;;;3.50;99.90;;;4.84;72.97;101362.81;4798045;29;20034;-89
2021/04/22 05:09:21;;;;;;;19.83;4.90;;;3.60;99.90;;;4.93;72.50;101367.38;4802544;29;20546;-89
2021/04/22 05:11:58;;;;;;;21.08;5.05;;;3.70;99.90;;;5.03;72.25;101372.72;4812500;29;20055;-89
2021/04/22 05:14:24;;;;;;;20.17;5.28;;;3.70;99.90;;;5.11;72.19;101376.72;4813079;29;20043;-90
2021/04/22 05:16:52;;;;;;;21.02;5.32;;;3.80;99.90;;;5.20;70.88;101369.38;4797135;29;20072;-89
2021/04/22 05:19:18;;;;;;;20.92;5.05;;;3.90;99.90;;;5.33;71.04;101374.09;4814393;29;20039;-85
2021/04/22 05:21:44;;;;;;;28.45;6.55;;;4.00;99.90;;;5.50;70.32;101377.09;4813271;29;20063;-86
2021/04/22 05:24:10;;;;;;;17.90;4.88;;;4.10;99.90;;;5.63;70.20;101390.16;4798020;29;20046;-87
2021/04/22 05:26:36;;;;;;;18.50;5.22;;;4.20;99.90;;;5.70;69.43;101386.97;4795180;29;20042;-88
2021/04/22 05:29:03;;;;;;;16.58;4.75;;;4.30;99.90;;;5.81;68.78;101396.75;4796566;29;20058;-87
2021/04/22 05:31:29;;;;;;;18.02;4.57;;;4.40;99.90;;;5.94;68.76;101395.13;4799088;29;20175;-88
2021/04/22 05:33:56;;;;;;;20.35;4.70;;;4.50;99.90;;;6.10;67.76;101396.44;4798874;29;20059;-89
2021/04/22 05:36:27;;;;;;;25.02;5.70;;;4.60;99.90;;;6.26;66.69;101397.75;4809681;29;20041;-89
2021/04/22 05:38:54;;;;;;;16.35;4.82;;;4.70;99.90;;;6.65;67.20;101389.59;4811577;29;20063;-85
2021/04/22 05:41:21;;;;;;;18.08;5.10;;;5.00;99.90;;;6.97;63.24;101394.09;4810412;29;20030;-88
2021/04/22 05:43:47;;;;;;;25.98;5.80;;;5.30;99.90;;;6.90;62.98;101405.66;4806144;29;20045;-88
2021/04/22 05:46:13;;;;;;;16.23;5.18;;;5.40;99.90;;;6.84;63.59;101404.13;4796801;29;20051;-89
2021/04/22 05:48:39;;;;;;;18.38;4.53;;;5.40;99.90;;;6.65;63.83;101411.81;4796583;29;20031;-88
2021/04/22 05:51:16;;;;;;;15.52;4.40;;;5.30;99.90;;;6.70;63.76;101408.09;4811668;29;20035;-88
2021/04/22 05:53:45;;;;;;;22.35;5.47;;;5.30;99.90;;;6.59;63.38;101413.06;4796154;29;20037;-88
2021/04/22 05:56:11;;;;;;;20.35;5.20;;;5.30;99.90;;;6.74;63.01;101414.69;4795706;29;20470;-87
2021/04/22 05:58:40;;;;;;;20.67;5.25;;;5.40;99.90;;;6.84;62.78;101418.03;4810197;29;20069;-87
2021/04/22 06:01:08;;;;;;;18.85;4.43;;;5.50;99.90;;;7.03;62.21;101417.81;4817228;29;20043;-88
2021/04/22 06:03:34;;;;;;;18.73;4.57;;;5.70;99.90;;;7.16;60.97;101424.47;4812855;29;20039;-87
2021/04/22 06:06:00;;;;;;;20.63;4.07;;;5.80;99.90;;;7.19;61.11;101426.63;4810009;29;20071;-88
2021/04/22 06:08:26;;;;;;;21.30;4.53;;;5.90;99.90;;;7.35;60.57;101425.09;4811062;29;20504;-86
2021/04/22 06:10:52;;;;;;;16.55;3.88;;;6.00;99.90;;;7.61;60.13;101431.59;4810799;29;20042;-86
2021/04/22 06:13:20;;;;;;;12.48;4.25;;;6.20;99.90;;;7.85;59.44;101436.78;4811375;29;20039;-87
2021/04/22 06:15:46;;;;;;;19.27;4.35;;;6.40;99.90;;;7.89;58.84;101433.06;4796213;29;20204;-86
2021/04/22 06:18:13;;;;;;;19.80;4.45;;;6.50;99.90;;;8.10;58.75;101429.66;4795741;29;20064;-89
2021/04/22 06:20:39;;;;;;;22.83;5.05;;;6.70;99.90;;;8.24;56.66;101436.75;4809645;29;20039;-87
2021/04/22 06:23:12;;;;;;;17.38;4.70;;;6.90;99.90;;;8.50;56.06;101442.41;4793363;29;20035;-89
2021/04/22 06:25:45;;;;;;;20.98;5.70;;;7.10;99.90;;;8.43;56.05;101434.53;4806963;29;20031;-87
2021/04/22 06:28:11;;;;;;;24.52;6.13;;;7.10;99.90;;;8.18;56.17;101445.59;4823165;29;20043;-89
2021/04/22 06:30:37;;;;;;;32.00;7.55;;;6.90;99.90;;;8.14;55.79;101445.41;4809331;29;20042;-89
2021/04/22 06:33:13;;;;;;;34.00;6.60;;;6.90;99.90;;;8.18;56.42;101451.97;4809912;29;20130;-87
2021/04/22 06:35:40;;;;;;;27.38;6.35;;;7.00;99.90;;;8.42;55.77;101441.25;4794429;29;20042;-89
2021/04/22 06:38:08;;;;;;;23.98;5.18;;;7.10;99.90;;;8.64;54.74;101447.81;4811102;29;20034;-88
2021/04/22 06:40:41;;;;;;;17.55;5.43;;;7.30;99.90;;;8.80;54.23;101448.97;4802460;29;20058;-87
2021/04/22 06:43:16;;;;;;;25.52;4.35;;;7.40;99.90;;;8.93;53.10;101448.84;4801222;29;20043;-88
2021/04/22 06:45:48;;;;;;;14.13;3.63;;;7.50;99.90;;;9.11;52.93;101466.38;4799134;29;20027;-86
2021/04/22 06:48:16;;;;;;;11.98;3.75;;;7.70;99.90;;;8.87;53.61;101466.03;4800595;29;20035;-87
2021/04/22 06:50:45;;;;;;;22.25;4.15;;;7.60;99.90;;;8.86;53.28;101464.41;4798087;29;20039;-86
2021/04/22 06:53:24;;;;;;;;;;;;;;;;;;;;;
2021/04/22 06:55:51;;;;;;;17.30;3.50;;;7.70;99.90;;;9.20;52.12;101458.00;4812625;29;20087;-88
2021/04/22 06:58:40;;;;;;;20.75;4.03;;;7.90;99.90;;;9.39;51.31;101461.25;4795820;29;20488;-89
2021/04/22 07:01:11;;;;;;;26.92;5.38;;;8.10;99.90;;;9.33;51.53;101468.97;4813364;29;20491;-87
2021/04/22 07:03:37;;;;;;;25.55;4.78;;;8.00;99.90;;;9.22;51.21;101478.00;4799056;29;20038;-88
2021/04/22 07:06:04;;;;;;;23.95;5.57;;;7.90;99.90;;;9.07;51.30;101478.50;4804299;29;20034;-88
2021/04/22 07:08:30;;;;;;;18.48;3.63;;;7.80;99.90;;;9.06;51.26;101466.53;4800446;29;20075;-88
2021/04/22 07:10:57;;;;;;;13.40;3.65;;;7.80;99.90;;;8.96;51.63;101476.03;4839135;24;20117;-81
2021/04/22 07:13:23;;;;;;;14.10;3.38;;;7.80;99.90;;;9.14;51.21;101489.97;4837160;29;20038;-81
2021/04/22 07:15:49;;;;;;;19.77;3.65;;;7.80;99.90;;;9.27;50.80;101487.03;4855362;29;20063;-81
2021/04/22 07:18:14;;;;;;;13.23;3.20;;;7.90;99.90;;;9.16;50.75;101480.13;4854363;29;20480;-81
2021/04/22 07:20:41;;;;;;;14.68;3.60;;;7.90;99.50;;;9.04;50.66;101484.72;4844885;29;20037;-80
2021/04/22 07:23:07;;;;;;;16.67;3.50;;;7.80;99.00;;;8.87;50.60;101489.16;4837022;29;20038;-81
2021/04/22 07:25:35;;;;;;;9.07;2.30;;;7.70;98.30;;;9.15;51.40;101491.63;4835786;29;20026;-81
2021/04/22 07:28:06;;;;;;;12.65;2.75;;;7.80;99.80;;;9.29;49.92;101489.47;4834808;29;20034;-81
2021/04/22 07:30:33;;;;;;;13.18;2.67;;;8.00;97.40;;;9.39;49.72;101491.94;4839432;29;20062;-82
2021/04/22 07:32:59;;;;;;;11.35;3.13;;;8.10;96.90;;;9.56;49.58;101491.09;4820538;29;20038;-80
2021/04/22 07:35:25;;;;;;;15.23;3.38;;;8.20;96.60;;;9.73;50.18;101494.66;4835602;29;20087;-80
2021/04/22 07:37:51;;;;;;;11.68;3.03;;;8.30;97.70;;;9.87;49.29;101491.66;4839330;29;20041;-80
2021/04/22 07:40:24;;;;;;;13.80;3.35;;;8.30;97.10;;;9.89;49.31;101498.53;4836871;29;20030;-80
2021/04/22 07:42:52;;;;;;;14.43;3.30;;;8.30;96.70;;;9.89;48.35;101506.91;4821920;29;20038;-83
2021/04/22 07:45:27;;;;;;;17.08;3.72;;;8.40;95.10;;;9.67;48.24;101512.72;4836841;29;20061;-80
2021/04/22 07:47:54;;;;;;;10.37;3.03;;;8.30;93.70;;;9.70;47.35;101502.84;4836118;29;20437;-81
2021/04/22 07:50:20;;;;;;;18.58;2.30;;;8.30;92.00;;;9.56;48.17;101502.25;4820785;29;20507;-82
2021/04/22 07:52:49;;;;;;;10.65;3.08;;;8.20;92.80;;;9.37;47.04;101511.78;4837453;29;20037;-81
2021/04/22 07:55:28;;;;;;;12.50;2.60;;;8.00;91.10;;;9.34;47.47;101514.41;4837075;29;20045;-80
2021/04/22 07:57:55;;;;;;;13.48;2.50;;;8.00;91.40;;;9.62;48.35;101509.28;4821643;29;20575;-80
2021/04/22 08:00:23;;;;;;;9.77;2.38;;;8.20;93.10;;;9.84;46.85;101509.91;4838658;29;20046;-82
2021/04/22 08:02:50;;;;;;;10.07;3.28;;;8.30;91.20;;;9.95;47.03;101511.16;4838222;29;20098;-82
2021/04/22 08:05:25;;;;;;;10.88;2.55;;;8.50;91.00;;;10.23;46.51;101511.59;4822634;29;20034;-79
2021/04/22 08:07:51;;;;;;;11.32;2.33;;;8.70;90.50;;;10.36;45.31;101518.09;4840115;29;20042;-81
2021/04/22 08:10:27;;;;;;;12.18;2.58;;;8.80;87.10;;;10.48;45.79;101518.22;4848231;29;20815;-78
2021/04/22 08:12:52;;;;;;;;;;;8.90;87.40;;;10.49;45.99;101522.66;4821553;29;20031;-80
2021/04/22 08:15:18;;;;;;;10.85;2.13;;;9.00;87.30;;;10.43;44.77;101524.00;4820649;29;19913;-81
2021/04/22 08:17:46;;;;;;;9.45;2.53;;;9.00;83.30;;;10.29;44.69;101515.84;4837457;29;20046;-79
2021/04/22 08:20:24;;;;;;;11.20;2.63;;;8.90;83.00;;;11.18;43.63;101520.19;4835091;29;20063;-81
2021/04/22 08:22:50;;;;;;;8.50;2.40;;;9.40;82.60;;;12.01;41.95;101518.09;4835996;29;20038;-82
2021/04/22 08:25:36;;;;;;;12.27;2.90;;;10.40;78.10;;;13.27;39.44;101514.22;4837808;29;20041;-83
2021/04/22 08:28:06;;;;;;;12.90;3.10;;;11.20;74.90;;;13.03;39.78;101523.50;4820780;29;20058;-84
2021/04/22 08:30:43;;;;;;;9.82;2.50;;;11.40;70.80;;;12.47;40.63;101516.06;4820219;29;20045;-79
2021/04/22 08:33:13;;;;;;;9.45;2.60;;;11.10;71.10;;;11.67;42.41;101532.44;4822732;29;20034;-82
2021/04/22 08:35:40;;;;;;;12.57;2.85;;;10.40;73.30;;;11.18;42.82;101525.78;4839087;29;20543;-80
2021/04/22 08:38:07;;;;;;;12.68;3.00;;;9.90;74.20;;;11.14;43.47;101519.28;4821850;29;20041;-80
2021/04/22 08:40:34;;;;;;;8.93;2.42;;;9.70;76.50;;;11.48;42.90;101515.34;4837866;29;20063;-82
2021/04/22 08:43:01;;;;;;;15.52;3.42;;;9.80;75.90;;;11.06;43.59;101511.75;4838289;29;20045;-82
2021/04/22 08:45:27;;;;;;;13.30;3.25;;;9.60;76.70;;;12.07;42.34;101527.91;4822306;29;20045;-81
2021/04/22 08:47:53;;;;;;;13.88;3.13;;;10.30;76.40;;;12.64;40.29;101530.66;4823481;29;20070;-82
2021/04/22 08:50:29;;;;;;;15.70;3.08;;;10.70;73.70;;;12.88;40.17;101518.59;4818546;29;20480;-81
2021/04/22 08:53:03;;;;;;;13.07;3.63;;;10.90;72.40;;;12.91;39.90;101522.66;4818707;29;20035;-81
2021/04/22 08:55:35;;;;;;;14.95;2.90;;;11.00;70.80;;;12.90;39.96;101532.28;4836660;29;20042;-81
2021/04/22 08:58:06;;;;;;;9.68;2.90;;;11.00;70.70;;;12.44;40.37;101530.75;4819526;29;20034;-82
2021/04/22 09:01:09;;;;;;;8.88;2.60;;;10.90;70.30;;;13.01;39.59;101525.00;4814625;29;20045;-82
2021/04/22 09:03:36;;;;;;;8.95;2.75;;;11.30;69.80;;;13.20;39.45;101525.22;4831262;29;20481;-82
2021/04/22 09:06:01;;;;;;;11.18;2.78;;;11.50;68.60;;;13.68;39.08;101527.84;4831110;29;20031;-82
2021/04/22 09:08:46;;;;;;;8.27;2.60;;;11.70;69.40;;;14.23;36.13;101524.13;4814450;29;20374;-82
2021/04/22 09:11:19;;;;;;;14.32;2.67;;;12.20;64.90;;;14.54;36.83;101522.53;4813897;29;20042;-84
2021/04/22 09:13:46;;;;;;;13.95;2.90;;;12.40;64.60;;;14.11;36.63;101526.22;4830576;29;20038;-83
2021/04/22 09:16:22;;;;;;;12.85;3.17;;;12.50;62.90;;;13.41;37.73;101520.25;4815571;29;20034;-83
2021/04/22 09:18:57;;;;;;;15.00;3.10;;;11.90;63.70;;;13.19;38.47;101535.66;4833655;29;20376;-82
2021/04/22 09:21:34;;;;;;;9.00;2.80;;;11.80;65.70;;;13.54;38.32;101523.81;4835281;29;20030;-83
2021/04/22 09:24:16;;;;;;;16.02;3.60;;;11.90;64.90;;;13.82;37.34;101526.59;4815806;29;20046;-81
2021/04/22 09:26:58;;;;;;;14.63;3.72;;;12.20;63.50;;;14.39;36.27;101531.78;4833082;29;20058;-82
2021/04/22 09:29:46;;;;;;;10.45;3.10;;;12.70;62.10;;;14.14;37.64;101523.50;4832912;29;20426;-82
2021/04/22 09:32:31;;;;;;;14.10;2.97;;;12.50;61.70;;;14.22;37.55;101516.88;4835856;29;20030;-83
2021/04/22 09:35:09;;;;;;;11.17;2.50;;;12.60;63.50;;;14.40;35.59;101520.19;4834243;29;20033;-83
2021/04/22 09:37:53;;;;;;;13.68;2.72;;;12.70;60.20;;;14.25;36.41;101527.38;4827427;29;20049;-79
2021/04/22 09:40:34;;;;;;;12.13;3.33;;;12.60;61.50;;;14.41;35.82;101521.81;4833404;29;20034;-82
2021/04/22 09:43:06;;;;;;;10.77;2.90;;;12.70;60.50;;;14.66;35.85;101525.25;4829674;29;20034;-82
2021/04/22 09:45:35;;;;;;;11.73;2.95;;;12.80;60.30;;;14.52;35.62;101513.63;4831220;29;20111;-83
2021/04/22 09:48:28;;;;;;;9.45;2.78;;;12.70;59.70;;;14.58;35.69;101518.63;4829746;29;20064;-81
2021/04/22 09:51:01;;;;;;;8.13;2.60;;;12.70;59.60;;;14.80;35.09;101516.34;4828849;29;20064;-82
2021/04/22 09:53:28;;;;;;;8.63;2.58;;;12.90;59.30;;;15.05;35.32;101514.91;4814043;29;20034;-81
2021/04/22 09:56:15;;;;;;;10.68;3.42;;;13.20;59.50;;;15.11;34.45;101516.25;4830363;29;20035;-85
2021/04/22 09:58:41;;;;;;;15.38;3.55;;;13.30;58.70;;;15.56;33.96;101521.28;4815409;29;20071;-83
2021/04/22 10:01:21;;;;;;;10.45;2.50;;;13.60;58.20;;;15.59;34.10;101512.06;4838933;29;20062;-84
2021/04/22 10:03:51;;;;;;;15.20;3.20;;;13.70;58.60;;;15.12;34.00;101513.06;4836496;29;20403;-83
2021/04/22 10:06:17;;;;;;;7.80;2.72;;;13.60;57.60;;;14.89;34.62;101517.78;4831370;29;20669;-85
2021/04/22 10:08:43;;;;;;;7.78;2.70;;;13.40;57.40;;;14.89;34.57;101516.94;4829529;29;20022;-87
2021/04/22 10:11:10;;;;;;;11.35;2.88;;;13.20;57.60;;;14.71;35.93;101514.53;4829613;29;20034;-84
2021/04/22 10:13:49;;;;;;;11.85;2.58;;;13.10;59.10;;;15.09;35.42;101513.00;4833157;29;20037;-83
2021/04/22 10:16:15;;;;;;;10.45;2.70;;;13.30;58.70;;;15.79;33.53;101516.50;4829866;29;20030;-84
2021/04/22 10:18:45;;;;;;;11.30;3.38;;;13.60;57.60;;;16.01;33.32;101512.91;4830282;29;20048;-82
2021/04/22 10:21:15;;;;;;;8.20;2.65;;;14.00;57.20;;;16.23;34.41;101509.28;4830080;29;20037;-85
2021/04/22 10:23:42;;;;;;;11.57;3.40;;;14.30;57.90;;;16.38;34.10;101509.50;4835008;29;20094;-84
2021/04/22 10:26:21;;;;;;;10.98;3.00;;;14.50;57.50;;;16.49;32.50;101514.16;4817579;29;20050;-83
2021/04/22 10:28:48;;;;;;;11.57;2.80;;;14.70;55.00;;;16.27;33.68;101509.34;4812787;29;20031;-83
2021/04/22 10:31:14;;;;;;;9.13;3.08;;;14.50;55.80;;;16.07;34.08;101516.22;4827530;29;20083;-83